Time;durP1;ratioP1;P1;durP2;ratioP2;P2;SDS_P1;SDS_P2;PMS_P1;PMS_P2;Temp;Humidity;BMP_temperature;BMP_pressure;BME280_temperature;BME280_humidity;BME280_pressure;Samples;Min_cycle;Max_cycle;Signal;HPM_P1;HPM_P2
2022/05/10 00:01:00;;;;;;;7.32;3.38;;;16.40;99.40;;;;;;4975517;28;20090;-78
2022/05/10 00:03:34;;;;;;;5.53;3.05;;;16.40;99.60;;;;;;4975154;28;20054;-78
2022/05/10 00:06:00;;;;;;;5.00;3.60;;;16.30;99.90;;;;;;4975411;28;20023;-77
2022/05/10 00:08:26;;;;;;;6.10;3.60;;;16.30;99.90;;;;;;4974905;28;20026;-77
2022/05/10 00:10:52;;;;;;;8.20;3.50;;;16.30;99.90;;;;;;4974961;28;20038;-78
2022/05/10 00:13:18;;;;;;;6.47;3.55;;;16.10;99.90;;;;;;4974756;28;20030;-77
2022/05/10 00:15:44;;;;;;;11.27;3.85;;;16.00;99.90;;;;;;4975090;28;20061;-77
2022/05/10 00:18:13;;;;;;;4.70;3.15;;;16.00;99.90;;;;;;4974337;28;20058;-77
2022/05/10 00:20:41;;;;;;;8.07;3.55;;;16.00;99.90;;;;;;4974122;28;20039;-77
2022/05/10 00:23:07;;;;;;;6.45;3.55;;;16.00;99.90;;;;;;4955798;28;20568;-77
2022/05/10 00:25:32;;;;;;;4.43;3.28;;;15.90;99.90;;;;;;4954829;29;20035;-77
2022/05/10 00:28:00;;;;;;;8.63;3.78;;;15.80;99.90;;;;;;4955028;28;20034;-77
2022/05/10 00:30:26;;;;;;;5.32;3.63;;;15.80;99.90;;;;;;4953123;29;20027;-77
2022/05/10 00:32:52;;;;;;;7.43;3.70;;;15.70;99.90;;;;;;4954906;28;20095;-77
2022/05/10 00:35:24;;;;;;;6.13;3.35;;;15.80;99.90;;;;;;4954451;28;20555;-77
2022/05/10 00:37:52;;;;;;;12.68;3.10;;;15.70;99.90;;;;;;4953143;28;20074;-77
2022/05/10 00:40:22;;;;;;;7.03;3.90;;;15.60;99.90;;;;;;4972765;28;20117;-78
2022/05/10 00:43:09;;;;;;;5.35;3.40;;;15.60;99.90;;;;;;4972489;28;20033;-78
2022/05/10 00:45:48;;;;;;;4.35;3.40;;;15.60;99.90;;;;;;4973436;28;20510;-78
2022/05/10 00:48:52;;;;;;;5.80;3.20;;;15.60;99.90;;;;;;4971897;28;20097;-78
2022/05/10 00:51:30;;;;;;;7.10;3.60;;;15.50;99.90;;;;;;4953499;28;20102;-78
2022/05/10 00:54:31;;;;;;;4.65;3.30;;;15.50;99.90;;;;;;4954244;28;20097;-78
2022/05/10 00:57:21;;;;;;;6.75;3.47;;;15.40;99.90;;;;;;4954426;28;20024;-78
2022/05/10 01:00:05;;;;;;;5.70;3.53;;;15.40;99.90;;;;;;4954292;29;20102;-77
2022/05/10 01:02:45;;;;;;;4.43;3.33;;;15.30;99.90;;;;;;4952663;29;20067;-78
2022/05/10 01:05:36;;;;;;;4.75;3.40;;;15.30;99.90;;;;;;4953757;29;20428;-78
2022/05/10 01:08:27;;;;;;;5.28;3.65;;;15.30;99.90;;;;;;4954395;28;20031;-78
2022/05/10 01:11:03;;;;;;;5.00;3.75;;;15.20;99.90;;;;;;4953959;28;20027;-78
2022/05/10 01:13:31;;;;;;;4.63;3.50;;;15.20;99.90;;;;;;4953017;28;20023;-77
2022/05/10 01:16:05;;;;;;;5.07;3.85;;;15.20;99.90;;;;;;4953855;28;20031;-77
2022/05/10 01:18:31;;;;;;;6.82;3.60;;;15.20;99.90;;;;;;4953832;28;20023;-78
2022/05/10 01:21:04;;;;;;;4.63;3.47;;;15.30;99.90;;;;;;4953560;29;20023;-77
2022/05/10 01:23:56;;;;;;;4.55;3.53;;;15.30;99.90;;;;;;4954621;28;20024;-77
2022/05/10 01:26:50;;;;;;;5.53;3.55;;;15.20;99.90;;;;;;4956824;28;20034;-77
2022/05/10 01:29:31;;;;;;;4.65;3.70;;;15.20;99.90;;;;;;4973454;28;20031;-78
2022/05/10 01:34:49;;;;;;;6.25;3.75;;;15.20;99.90;;;;;;4973357;28;20041;-77
2022/05/10 01:37:21;;;;;;;5.47;3.70;;;15.20;99.90;;;;;;4972978;28;20030;-77
2022/05/10 01:40:02;;;;;;;4.28;3.30;;;15.10;99.90;;;;;;4972093;28;20078;-77
2022/05/10 01:42:42;;;;;;;6.20;3.97;;;15.10;99.90;;;;;;4971610;28;20037;-77
2022/05/10 01:45:17;;;;;;;6.55;4.38;;;15.10;99.90;;;;;;4972520;28;20069;-78
2022/05/10 01:47:55;;;;;;;4.85;4.07;;;15.10;99.90;;;;;;4972801;28;20034;-78
2022/05/10 01:50:47;;;;;;;6.55;3.60;;;15.10;99.90;;;;;;4972601;28;20019;-77
2022/05/10 01:53:25;;;;;;;4.47;3.45;;;15.10;99.90;;;;;;4973333;28;20027;-77
2022/05/10 01:55:53;;;;;;;8.07;4.40;;;15.00;99.90;;;;;;4972392;28;20511;-77
2022/05/10 01:58:28;;;;;;;4.63;3.65;;;14.90;99.90;;;;;;4972245;28;20030;-77
2022/05/10 02:01:01;;;;;;;5.28;3.70;;;14.90;99.90;;;;;;4971514;28;20019;-77
2022/05/10 02:04:07;;;;;;;5.25;3.80;;;14.80;99.90;;;;;;4954907;28;20031;-77
2022/05/10 02:06:40;;;;;;;4.18;3.20;;;14.80;99.90;;;;;;4935820;29;20126;-78
2022/05/10 02:09:18;;;;;;;5.82;3.95;;;14.90;99.90;;;;;;4935856;29;20139;-77
2022/05/10 02:11:51;;;;;;;6.20;4.10;;;14.90;99.90;;;;;;4935605;29;20098;-77
2022/05/10 02:14:41;;;;;;;5.63;3.90;;;14.80;99.90;;;;;;4936007;29;20030;-77
2022/05/10 02:17:28;;;;;;;4.75;3.60;;;14.80;99.90;;;;;;4934047;29;20039;-77
2022/05/10 02:19:58;;;;;;;6.75;3.42;;;14.70;99.90;;;;;;4935515;29;20567;-78
2022/05/10 02:22:28;;;;;;;4.55;3.60;;;14.60;99.90;;;;;;4935535;29;20443;-77
2022/05/10 02:24:59;;;;;;;5.05;3.42;;;14.60;99.90;;;;;;4935473;29;20466;-78
2022/05/10 02:27:41;;;;;;;7.65;3.47;;;14.60;99.90;;;;;;4936199;29;20039;-77
2022/05/10 02:30:11;;;;;;;5.32;3.30;;;14.40;99.90;;;;;;4935485;29;20098;-77
2022/05/10 02:33:06;;;;;;;5.28;4.00;;;14.50;99.90;;;;;;4918953;29;20024;-77
2022/05/10 02:35:46;;;;;;;8.05;4.00;;;14.40;99.90;;;;;;4935403;29;20036;-77
2022/05/10 02:38:23;;;;;;;5.60;3.53;;;14.30;99.90;;;;;;4935503;29;20058;-77
2022/05/10 02:40:52;;;;;;;6.13;3.90;;;14.30;99.90;;;;;;4934660;29;20055;-78
2022/05/10 02:43:31;;;;;;;8.50;4.15;;;14.20;99.90;;;;;;4955954;29;20032;-77
2022/05/10 02:45:57;;;;;;;7.03;4.05;;;14.20;99.90;;;;;;4956248;28;20031;-77
2022/05/10 02:48:32;;;;;;;9.80;4.10;;;14.10;99.90;;;;;;4956396;28;20019;-77
2022/05/10 02:50:58;;;;;;;9.07;4.18;;;14.10;99.90;;;;;;4958503;28;20078;-78
2022/05/10 02:53:25;;;;;;;6.88;4.32;;;14.10;99.90;;;;;;4975774;28;20026;-78
2022/05/10 02:56:05;;;;;;;6.18;4.00;;;14.10;99.90;;;;;;4975524;28;20610;-77
2022/05/10 02:59:06;;;;;;;7.05;4.38;;;14.10;99.90;;;;;;4974516;28;20022;-78
2022/05/10 03:02:04;;;;;;;6.65;4.25;;;14.20;99.90;;;;;;4937722;29;20043;-78
2022/05/10 03:04:35;;;;;;;8.93;4.68;;;14.20;99.90;;;;;;4953896;28;20122;-77
2022/05/10 03:07:00;;;;;;;6.40;4.22;;;14.20;99.90;;;;;;4953148;29;20039;-77
2022/05/10 03:09:26;;;;;;;7.78;4.70;;;14.10;99.90;;;;;;4954089;29;20491;-77
2022/05/10 03:11:52;;;;;;;5.22;3.85;;;14.00;99.90;;;;;;4953771;29;20166;-77
2022/05/10 03:14:17;;;;;;;6.28;4.20;;;14.00;99.90;;;;;;4954045;28;20031;-77
2022/05/10 03:16:43;;;;;;;8.30;4.60;;;13.90;99.90;;;;;;4953686;29;20116;-77
2022/05/10 03:19:08;;;;;;;6.38;4.57;;;14.00;99.90;;;;;;4953530;29;20059;-77
2022/05/10 03:21:39;;;;;;;10.82;4.63;;;14.10;99.90;;;;;;4953471;29;20042;-78
2022/05/10 03:24:05;;;;;;;6.82;4.30;;;14.00;99.90;;;;;;4953476;29;20422;-77
2022/05/10 03:26:31;;;;;;;10.88;4.45;;;14.00;99.90;;;;;;4953716;29;20087;-78
2022/05/10 03:28:57;;;;;;;6.45;4.13;;;14.00;99.90;;;;;;4953680;29;20026;-78
2022/05/10 03:31:25;;;;;;;9.95;4.47;;;13.90;99.90;;;;;;4953133;29;20035;-77
2022/05/10 03:36:35;;;;;;;6.93;4.47;;;13.90;99.90;;;;;;4959283;28;20058;-77
2022/05/10 03:39:01;;;;;;;9.27;5.13;;;13.80;99.90;;;;;;4973498;28;20034;-77
2022/05/10 03:41:27;;;;;;;7.50;4.43;;;13.80;99.90;;;;;;4974836;28;20077;-77
2022/05/10 03:43:52;;;;;;;6.32;4.50;;;13.80;99.90;;;;;;4974792;28;20054;-77
2022/05/10 03:46:19;;;;;;;6.28;4.05;;;13.80;99.90;;;;;;4974435;28;20156;-78
2022/05/10 03:48:48;;;;;;;6.25;4.10;;;13.80;99.90;;;;;;4974982;28;20023;-77
2022/05/10 03:51:14;;;;;;;5.72;4.55;;;13.70;99.90;;;;;;4968545;28;20030;-77
2022/05/10 03:53:39;;;;;;;7.05;4.63;;;13.60;99.90;;;;;;4955719;28;20110;-77
2022/05/10 03:56:05;;;;;;;7.75;4.60;;;13.60;99.90;;;;;;4955233;28;20035;-78
2022/05/10 03:58:31;;;;;;;5.95;4.63;;;13.60;99.90;;;;;;4955080;29;20030;-78
2022/05/10 04:00:56;;;;;;;5.97;4.55;;;13.70;99.90;;;;;;4954771;28;20035;-77
2022/05/10 04:03:22;;;;;;;6.43;4.47;;;13.60;99.90;;;;;;4971457;28;20479;-77
2022/05/10 04:05:48;;;;;;;9.77;4.10;;;13.60;99.90;;;;;;4974447;28;20085;-78
2022/05/10 04:08:14;;;;;;;7.93;4.85;;;13.60;99.90;;;;;;4973422;28;20018;-78
2022/05/10 04:10:40;;;;;;;6.25;4.25;;;13.50;99.90;;;;;;4973166;28;20026;-78
2022/05/10 04:13:07;;;;;;;5.70;4.47;;;13.50;99.90;;;;;;4974410;28;20518;-80
2022/05/10 04:15:32;;;;;;;7.03;4.93;;;13.50;99.90;;;;;;4973666;28;20034;-79
2022/05/10 04:17:58;;;;;;;7.40;4.75;;;13.40;99.90;;;;;;4974041;28;20056;-78
2022/05/10 04:20:24;;;;;;;9.43;5.05;;;13.50;99.90;;;;;;4972774;28;20471;-77
2022/05/10 04:22:50;;;;;;;8.07;4.25;;;13.60;99.90;;;;;;4974240;28;20027;-77
2022/05/10 04:25:23;;;;;;;7.32;4.38;;;13.50;99.90;;;;;;4972884;28;20545;-78
2022/05/10 04:27:51;;;;;;;5.95;4.50;;;13.40;99.90;;;;;;4973596;28;20447;-78
2022/05/10 04:30:17;;;;;;;9.68;4.60;;;13.40;99.90;;;;;;4972487;28;20035;-78
2022/05/10 04:32:42;;;;;;;7.75;4.38;;;13.40;99.90;;;;;;4973820;28;20023;-78
2022/05/10 04:35:09;;;;;;;7.85;4.55;;;13.30;99.90;;;;;;4973856;28;20037;-78
2022/05/10 04:37:34;;;;;;;5.75;4.30;;;13.30;99.90;;;;;;4969263;28;20391;-78
2022/05/10 04:42:45;;;;;;;6.03;4.43;;;13.40;99.90;;;;;;4968995;28;20516;-79
2022/05/10 04:45:12;;;;;;;7.78;4.97;;;13.40;99.90;;;;;;4957316;28;20387;-77
2022/05/10 04:47:38;;;;;;;9.27;5.65;;;13.40;99.90;;;;;;4984605;28;20021;-77
2022/05/10 04:50:04;;;;;;;7.05;4.70;;;13.40;99.90;;;;;;4977844;28;20026;-78
2022/05/10 04:52:30;;;;;;;8.50;5.50;;;13.40;99.90;;;;;;4971152;28;20015;-77
2022/05/10 04:54:55;;;;;;;7.72;5.38;;;13.40;99.90;;;;;;4967330;28;20409;-77
2022/05/10 04:57:21;;;;;;;9.05;5.75;;;13.40;99.90;;;;;;4964025;28;20063;-79
2022/05/10 04:59:47;;;;;;;8.80;6.13;;;13.40;99.90;;;;;;4961684;28;20571;-77
2022/05/10 05:02:13;;;;;;;12.18;6.15;;;13.30;99.90;;;;;;4971429;28;20117;-78
2022/05/10 05:04:39;;;;;;;10.18;6.78;;;13.40;99.90;;;;;;4972855;28;20089;-77
2022/05/10 05:07:05;;;;;;;14.77;5.95;;;13.40;99.90;;;;;;4973663;28;20026;-80
2022/05/10 05:09:31;;;;;;;16.45;6.03;;;13.40;99.90;;;;;;4960639;28;20082;-79
2022/05/10 05:11:57;;;;;;;7.70;5.10;;;13.30;99.90;;;;;;4964537;28;20025;-79
2022/05/10 05:14:23;;;;;;;9.90;5.70;;;13.40;99.90;;;;;;4960881;28;20019;-79
2022/05/10 05:16:49;;;;;;;6.90;5.30;;;13.50;99.90;;;;;;4965099;28;20026;-78
2022/05/10 10:24:49;;;;;;;4.22;2.50;;;25.80;75.00;;;;;;5013242;23;20454;-80
2022/05/10 10:27:28;;;;;;;3.60;2.40;;;25.80;74.50;;;;;;4949527;28;20418;-79
2022/05/10 10:29:58;;;;;;;6.47;2.30;;;26.40;75.40;;;;;;4957201;28;20035;-79
2022/05/10 10:32:33;;;;;;;4.07;2.40;;;25.80;73.90;;;;;;4956890;28;20613;-79
2022/05/10 10:35:17;;;;;;;5.20;2.80;;;26.20;75.90;;;;;;4957519;28;20066;-79
2022/05/10 10:37:58;;;;;;;3.92;2.33;;;26.20;72.60;;;;;;4957420;29;20106;-79
2022/05/10 10:40:27;;;;;;;7.68;1.85;;;26.80;70.80;;;;;;4956393;28;20474;-80
2022/05/10 10:43:17;;;;;;;6.38;2.20;;;26.10;68.40;;;;;;4942592;29;20110;-79
2022/05/10 10:45:46;;;;;;;14.35;2.33;;;26.50;69.60;;;;;;4952339;29;20042;-79
2022/05/10 10:48:38;;;;;;;5.50;2.20;;;26.10;68.90;;;;;;4957094;28;20019;-79
2022/05/10 10:51:03;;;;;;;6.45;2.47;;;26.70;70.50;;;;;;4956695;28;20443;-79
2022/05/10 10:53:34;;;;;;;4.78;2.30;;;27.30;68.20;;;;;;4951855;28;20039;-79
2022/05/10 10:56:02;;;;;;;5.90;2.03;;;26.70;67.60;;;;;;4956093;28;20020;-79
2022/05/10 10:58:59;;;;;;;3.90;2.13;;;26.90;67.50;;;;;;4966446;28;20048;-79
2022/05/10 11:01:40;;;;;;;3.65;2.10;;;27.40;68.00;;;;;;4952106;28;20015;-79
2022/05/10 11:04:24;;;;;;;4.88;1.90;;;27.50;65.20;;;;;;4945633;29;20027;-79
2022/05/10 11:06:54;;;;;;;5.45;2.20;;;28.20;66.20;;;;;;4952178;28;20028;-80
2022/05/10 11:09:20;;;;;;;4.97;2.33;;;27.60;66.90;;;;;;4941733;28;20042;-80
2022/05/10 11:12:05;;;;;;;5.47;2.28;;;27.20;65.90;;;;;;4937161;29;20155;-81
2022/05/10 11:14:58;;;;;;;2.90;1.92;;;27.30;69.00;;;;;;4944743;29;20038;-80
2022/05/10 11:17:42;;;;;;;2.50;1.83;;;27.30;65.60;;;;;;4947413;29;20123;-80
2022/05/10 14:33:37;;;;;;;5.47;1.60;;;29.10;46.10;;;;;;5802765;23;20051;-76
2022/05/10 14:36:06;;;;;;;3.80;1.50;;;28.80;47.30;;;;;;4957118;28;20027;-76
2022/05/10 14:38:34;;;;;;;5.07;1.50;;;28.50;46.90;;;;;;4960699;28;20034;-78
2022/05/10 14:41:00;;;;;;;4.50;1.52;;;28.90;49.50;;;;;;4963834;28;20019;-79
2022/05/10 14:43:34;;;;;;;5.47;1.50;;;28.70;47.20;;;;;;4957386;28;20055;-76
2022/05/10 14:46:25;;;;;;;2.85;1.55;;;28.80;47.80;;;;;;4957584;28;20042;-82
2022/05/10 14:48:59;;;;;;;5.47;1.40;;;28.60;48.20;;;;;;4957581;28;20079;-78
2022/05/10 14:51:34;;;;;;;4.07;1.60;;;28.30;47.30;;;;;;4957923;28;20026;-77
2022/05/10 14:53:59;;;;;;;2.63;1.55;;;28.40;48.90;;;;;;4961155;28;20027;-79
2022/05/10 14:56:36;;;;;;;7.10;1.90;;;28.30;46.40;;;;;;4955935;28;20114;-77
2022/05/10 14:59:48;;;;;;;11.07;2.13;;;28.20;46.80;;;;;;4956310;29;20453;-79
2022/05/10 15:02:33;;;;;;;5.72;1.60;;;27.90;47.60;;;;;;4959669;29;20024;-79
2022/05/10 15:05:06;;;;;;;4.03;1.60;;;28.00;48.30;;;;;;4959316;29;20490;-78
2022/05/10 15:07:32;;;;;;;6.18;1.70;;;28.10;47.70;;;;;;4958375;28;20019;-78
2022/05/10 15:09:57;;;;;;;4.13;1.20;;;28.20;50.50;;;;;;4957461;28;20524;-78
2022/05/10 15:15:07;;;;;;;6.18;2.00;;;28.00;48.90;;;;;;4943878;28;20550;-78
2022/05/10 15:18:58;;;;;;;5.30;1.80;;;28.10;48.40;;;;;;4957176;28;20023;-78
2022/05/10 15:20:19;;;;;;;3.88;1.45;;;28.30;48.40;;;;;;4956496;28;20049;-78
2022/05/10 15:22:44;;;;;;;5.97;2.28;;;28.30;49.80;;;;;;4955923;29;20495;-78
2022/05/10 15:25:10;;;;;;;3.50;1.48;;;28.00;45.70;;;;;;4957167;29;20031;-78
2022/05/10 15:27:36;;;;;;;4.35;1.70;;;27.80;47.60;;;;;;4959933;28;20026;-78
2022/05/10 15:30:04;;;;;;;5.07;1.85;;;27.70;48.00;;;;;;4957426;28;20035;-78
2022/05/10 15:32:30;;;;;;;3.60;1.83;;;27.90;47.60;;;;;;4956219;28;20050;-78
2022/05/10 15:34:56;;;;;;;2.50;1.52;;;27.80;47.50;;;;;;4939001;28;20174;-78
2022/05/10 15:37:24;;;;;;;6.43;1.40;;;27.70;47.20;;;;;;4937226;29;20027;-78
2022/05/10 15:39:50;;;;;;;2.35;1.35;;;27.80;48.30;;;;;;4936778;29;20503;-78
2022/05/10 15:42:22;;;;;;;2.65;1.50;;;27.80;46.90;;;;;;4937189;29;20024;-78
2022/05/10 15:44:48;;;;;;;6.05;1.65;;;27.60;48.20;;;;;;4951770;29;20038;-78
2022/05/10 15:47:19;;;;;;;2.70;1.52;;;27.70;48.00;;;;;;4940729;29;20430;-78
2022/05/10 15:49:45;;;;;;;4.68;1.40;;;27.70;47.70;;;;;;4956549;28;20435;-78
2022/05/10 15:52:10;;;;;;;7.25;1.52;;;27.70;49.60;;;;;;4956489;29;20027;-78
2022/05/10 15:54:36;;;;;;;3.40;1.40;;;27.60;48.20;;;;;;4954915;29;20035;-78
2022/05/10 15:57:02;;;;;;;7.55;1.50;;;27.70;46.60;;;;;;4955514;29;20106;-77
2022/05/10 15:59:28;;;;;;;4.55;1.83;;;27.60;47.00;;;;;;4945502;29;20502;-77
2022/05/10 16:01:53;;;;;;;3.03;1.63;;;27.40;48.80;;;;;;4950460;28;20439;-78
2022/05/10 16:04:19;;;;;;;3.90;1.58;;;27.10;46.80;;;;;;4936753;29;20083;-78
2022/05/10 16:06:45;;;;;;;2.08;1.20;;;27.10;47.50;;;;;;4934907;29;20058;-78
2022/05/10 16:09:11;;;;;;;4.78;1.55;;;27.30;49.00;;;;;;4936752;29;20067;-78
2022/05/10 16:11:39;;;;;;;5.00;1.63;;;27.20;46.90;;;;;;4936751;29;20028;-79
2022/05/10 16:14:05;;;;;;;5.13;1.88;;;27.10;47.50;;;;;;4942443;29;20027;-78
2022/05/10 16:16:31;;;;;;;2.35;1.30;;;27.10;48.00;;;;;;4936903;29;20032;-78
2022/05/10 16:18:57;;;;;;;7.05;1.75;;;27.10;46.80;;;;;;4936298;29;20134;-78
2022/05/10 16:21:22;;;;;;;8.88;1.40;;;27.30;47.20;;;;;;4935943;29;20472;-80
2022/05/10 16:23:48;;;;;;;8.40;1.60;;;27.50;48.20;;;;;;4935904;29;20051;-75
2022/05/10 16:31:42;;;;;;;4.57;1.70;;;27.60;46.60;;;;;;4935850;29;20083;-77
2022/05/10 16:34:08;;;;;;;6.95;1.60;;;27.50;46.30;;;;;;4935025;29;20051;-77
2022/05/10 16:36:34;;;;;;;5.43;1.50;;;27.50;47.10;;;;;;4936542;29;20419;-77
2022/05/10 16:39:00;;;;;;;6.03;1.48;;;27.30;46.50;;;;;;4936253;29;20027;-77
2022/05/10 16:41:26;;;;;;;4.95;1.50;;;27.40;47.70;;;;;;4936362;29;20024;-78
2022/05/10 16:43:52;;;;;;;4.45;1.52;;;27.30;47.20;;;;;;4935952;29;20390;-78
2022/05/10 16:46:18;;;;;;;3.13;1.60;;;27.40;46.90;;;;;;4936366;29;20028;-77
2022/05/10 16:48:45;;;;;;;3.38;1.70;;;27.20;45.30;;;;;;4935945;29;20542;-77
2022/05/10 16:51:12;;;;;;;8.25;2.10;;;27.10;45.20;;;;;;4936057;29;20051;-75
2022/05/10 16:53:37;;;;;;;12.52;1.88;;;27.00;49.00;;;;;;4936026;29;20099;-75
2022/05/10 16:56:04;;;;;;;6.00;1.65;;;27.00;49.00;;;;;;4935371;29;20479;-78
2022/05/10 16:58:30;;;;;;;16.83;2.63;;;26.90;47.20;;;;;;4936093;29;20051;-78
2022/05/10 17:00:56;;;;;;;6.53;1.90;;;26.90;44.60;;;;;;4954562;29;20020;-80
2022/05/10 17:03:22;;;;;;;5.65;1.63;;;27.00;47.40;;;;;;4954872;28;20439;-78
2022/05/10 17:05:48;;;;;;;7.30;1.65;;;26.90;46.40;;;;;;4954449;29;20035;-80
2022/05/10 17:08:15;;;;;;;4.13;1.42;;;26.90;46.80;;;;;;4955018;28;20019;-75
2022/05/10 17:10:42;;;;;;;3.13;1.52;;;26.90;46.20;;;;;;4951054;28;20030;-78
2022/05/10 17:13:08;;;;;;;2.88;1.48;;;26.80;45.10;;;;;;4954654;28;20451;-77
2022/05/10 17:15:33;;;;;;;4.10;1.30;;;26.80;46.30;;;;;;4954731;29;20106;-79
2022/05/10 17:17:59;;;;;;;6.78;1.48;;;26.70;46.30;;;;;;4953590;29;20059;-77
2022/05/10 17:20:25;;;;;;;4.32;1.30;;;26.70;46.40;;;;;;4946088;28;20396;-76
2022/05/10 17:22:51;;;;;;;5.63;1.55;;;26.70;44.80;;;;;;4935575;29;20032;-79
2022/05/10 17:25:27;;;;;;;2.90;1.50;;;26.70;45.70;;;;;;4935491;29;20028;-78
2022/05/10 17:28:07;;;;;;;5.78;1.52;;;26.70;44.70;;;;;;4936792;29;20027;-78
2022/05/10 17:30:33;;;;;;;3.38;1.58;;;26.60;48.10;;;;;;4935927;29;20064;-78
2022/05/10 17:32:58;;;;;;;4.97;1.40;;;26.50;47.80;;;;;;4934433;29;20036;-77
2022/05/10 17:35:24;;;;;;;11.45;1.70;;;26.40;47.10;;;;;;4935598;29;20069;-78
2022/05/10 17:37:50;;;;;;;5.07;1.58;;;26.50;47.90;;;;;;4935171;29;20035;-77
2022/05/10 17:40:16;;;;;;;3.30;1.40;;;26.40;49.30;;;;;;4949185;29;20599;-80
2022/05/10 17:42:42;;;;;;;3.72;1.77;;;26.20;50.60;;;;;;4954687;28;20043;-79
2022/05/10 17:45:09;;;;;;;2.22;1.10;;;26.20;52.00;;;;;;4953919;29;20023;-78
2022/05/10 17:47:35;;;;;;;3.00;1.67;;;26.10;49.70;;;;;;4954194;28;20034;-78
2022/05/10 17:50:02;;;;;;;7.07;1.52;;;25.90;49.90;;;;;;4954599;29;20019;-79
2022/05/10 17:52:27;;;;;;;2.50;1.60;;;25.90;51.00;;;;;;4954407;28;20476;-79
2022/05/10 17:54:56;;;;;;;4.10;1.60;;;25.80;50.90;;;;;;4954212;29;20041;-79
2022/05/10 17:57:22;;;;;;;5.78;2.10;;;25.80;50.10;;;;;;4954329;29;20035;-79
2022/05/10 17:59:48;;;;;;;4.00;1.42;;;25.80;51.50;;;;;;4946953;29;20455;-78
2022/05/10 18:02:16;;;;;;;4.22;1.95;;;25.70;51.60;;;;;;4952560;29;20063;-79
2022/05/10 18:04:41;;;;;;;5.63;2.50;;;25.50;54.40;;;;;;4935283;29;20019;-79
2022/05/10 18:07:07;;;;;;;8.82;1.80;;;25.30;56.90;;;;;;4934842;29;20103;-79
2022/05/10 18:09:33;;;;;;;4.85;1.77;;;25.10;58.90;;;;;;4932709;29;20055;-79
2022/05/10 18:11:58;;;;;;;8.73;2.33;;;25.00;59.40;;;;;;4933355;29;20483;-79
2022/05/10 18:14:24;;;;;;;3.58;2.00;;;24.90;60.20;;;;;;4935171;29;20107;-79
2022/05/10 18:16:50;;;;;;;5.72;1.75;;;24.70;61.50;;;;;;4935222;29;20074;-78
2022/05/10 18:19:15;;;;;;;3.72;1.95;;;24.60;61.90;;;;;;4951349;29;21466;-79
2022/05/10 18:21:41;;;;;;;5.70;1.98;;;24.50;62.30;;;;;;4954262;28;20558;-81
2022/05/10 18:24:07;;;;;;;6.03;2.10;;;24.30;63.00;;;;;;4951733;29;20110;-79
2022/05/10 18:26:33;;;;;;;12.95;2.65;;;24.30;63.10;;;;;;4934677;29;20024;-80
2022/05/10 18:28:59;;;;;;;6.60;2.28;;;24.20;63.20;;;;;;4933429;29;20392;-78
2022/05/10 18:31:25;;;;;;;4.20;1.90;;;24.10;63.50;;;;;;4934716;29;20032;-80
2022/05/10 18:33:51;;;;;;;3.90;1.88;;;24.00;64.30;;;;;;4937465;29;20075;-82
2022/05/10 18:36:17;;;;;;;4.13;2.10;;;23.80;64.20;;;;;;4933507;29;20047;-79
2022/05/10 18:38:43;;;;;;;4.72;1.75;;;23.70;63.70;;;;;;4935120;29;20019;-78
2022/05/10 18:41:13;;;;;;;6.57;2.20;;;23.60;64.40;;;;;;4937971;29;20024;-81
2022/05/10 18:43:39;;;;;;;7.18;2.08;;;23.60;64.90;;;;;;4942200;29;20026;-79
2022/05/10 18:46:07;;;;;;;4.82;2.15;;;23.40;65.40;;;;;;4956640;28;20399;-78
2022/05/10 18:48:34;;;;;;;4.38;2.42;;;23.40;64.90;;;;;;4946414;28;20023;-79
2022/05/10 18:51:01;;;;;;;5.95;2.10;;;23.30;65.20;;;;;;4956988;29;20027;-80
2022/05/10 18:53:27;;;;;;;4.22;2.30;;;23.20;66.40;;;;;;4944311;28;20020;-79
2022/05/10 18:55:52;;;;;;;4.70;2.22;;;23.20;66.50;;;;;;4937775;29;20110;-80
2022/05/10 18:58:18;;;;;;;7.93;2.30;;;23.00;66.60;;;;;;4936126;29;20050;-80
2022/05/10 19:00:44;;;;;;;3.47;2.03;;;22.90;67.30;;;;;;4934399;29;20484;-78
2022/05/10 19:03:09;;;;;;;6.78;2.20;;;22.80;67.90;;;;;;4933547;29;20491;-79
2022/05/10 19:05:36;;;;;;;4.65;2.22;;;22.70;68.10;;;;;;4935595;29;20063;-79
2022/05/10 19:08:03;;;;;;;7.90;2.70;;;22.70;68.70;;;;;;4936906;29;20019;-79
2022/05/10 19:10:28;;;;;;;8.85;2.40;;;22.60;69.30;;;;;;4935969;29;20036;-79
2022/05/10 19:12:54;;;;;;;4.55;2.47;;;22.50;69.30;;;;;;4936189;29;20220;-80
2022/05/10 19:15:23;;;;;;;8.13;2.40;;;22.40;69.70;;;;;;4935358;29;20020;-79
2022/05/10 19:17:49;;;;;;;5.50;2.20;;;22.30;69.80;;;;;;4936093;29;20032;-78
2022/05/10 19:20:15;;;;;;;7.30;2.40;;;22.20;69.60;;;;;;4940775;29;20031;-79
2022/05/10 19:22:42;;;;;;;3.75;2.22;;;22.20;68.90;;;;;;4934911;29;20102;-82
2022/05/10 19:25:08;;;;;;;5.43;2.47;;;22.10;69.80;;;;;;4936212;29;20042;-79
2022/05/10 19:27:34;;;;;;;6.60;2.33;;;22.00;69.40;;;;;;4935622;29;20024;-79
2022/05/10 19:30:00;;;;;;;4.55;2.38;;;22.00;68.60;;;;;;4941857;29;20023;-78
2022/05/10 19:32:26;;;;;;;5.22;2.25;;;21.90;67.70;;;;;;4941297;29;20023;-79
2022/05/10 19:34:51;;;;;;;6.93;2.20;;;21.90;66.40;;;;;;4936585;29;20052;-79
2022/05/10 19:37:20;;;;;;;5.63;1.90;;;21.80;66.10;;;;;;4935578;29;20044;-78
2022/05/10 19:39:46;;;;;;;3.83;2.20;;;21.80;65.10;;;;;;4934773;29;20035;-78
2022/05/10 19:42:12;;;;;;;5.53;2.60;;;21.80;65.40;;;;;;4935454;29;20032;-79
2022/05/10 19:44:39;;;;;;;3.10;1.80;;;21.70;65.50;;;;;;4936446;29;20067;-79
2022/05/10 19:47:06;;;;;;;3.90;2.05;;;21.70;65.50;;;;;;4935232;29;20511;-78
2022/05/10 19:49:35;;;;;;;5.88;2.10;;;21.60;65.50;;;;;;4940545;29;20491;-78
2022/05/10 19:52:01;;;;;;;4.43;2.03;;;21.60;65.20;;;;;;4936740;29;20012;-78
2022/05/10 19:54:27;;;;;;;3.90;1.92;;;21.60;65.00;;;;;;4935696;29;20083;-78
2022/05/10 19:56:53;;;;;;;8.57;1.60;;;21.50;65.20;;;;;;4935024;29;20023;-78
2022/05/10 19:59:19;;;;;;;4.05;2.08;;;21.50;65.10;;;;;;4935592;29;20526;-78
2022/05/10 20:07:16;;;;;;;7.55;2.08;;;21.30;65.60;;;;;;4936073;29;20559;-79
2022/05/10 20:09:43;;;;;;;4.28;1.70;;;21.30;65.20;;;;;;4935568;29;20107;-78
2022/05/10 20:12:09;;;;;;;3.22;1.90;;;21.20;66.30;;;;;;4935672;29;20051;-78
2022/05/10 20:14:34;;;;;;;3.53;1.80;;;21.10;65.50;;;;;;4935487;29;20083;-78
2022/05/10 20:17:00;;;;;;;3.58;1.88;;;21.20;65.40;;;;;;4936475;29;20031;-78
2022/05/10 20:19:30;;;;;;;5.05;1.70;;;21.10;65.50;;;;;;4935165;29;20043;-79
2022/05/10 20:21:56;;;;;;;3.33;1.80;;;21.00;65.60;;;;;;4934805;29;20503;-78
2022/05/10 20:24:23;;;;;;;5.78;1.90;;;21.00;65.80;;;;;;4936502;29;20116;-78
2022/05/10 20:26:48;;;;;;;3.92;2.17;;;21.00;65.90;;;;;;4936037;29;20016;-78
2022/05/10 20:29:16;;;;;;;2.97;2.00;;;20.90;66.10;;;;;;4936248;29;20150;-78
2022/05/10 20:31:42;;;;;;;3.15;2.38;;;20.90;66.20;;;;;;4936114;29;20023;-78
2022/05/10 20:34:09;;;;;;;5.40;2.28;;;20.90;66.20;;;;;;4936294;29;20052;-78
2022/05/10 20:36:36;;;;;;;3.13;1.88;;;20.80;66.50;;;;;;4936284;29;20426;-78
2022/05/10 20:39:02;;;;;;;6.30;2.25;;;20.80;66.50;;;;;;4936295;29;20063;-78
2022/05/10 20:41:28;;;;;;;4.63;1.92;;;20.70;66.70;;;;;;4935847;29;20090;-78
2022/05/10 20:43:54;;;;;;;4.05;2.03;;;20.70;67.00;;;;;;4936569;29;20036;-78
2022/05/10 20:46:20;;;;;;;4.38;1.83;;;20.70;67.00;;;;;;4935946;29;20076;-78
2022/05/10 20:48:46;;;;;;;5.10;2.30;;;20.60;67.20;;;;;;4936248;29;20035;-78
2022/05/10 20:51:13;;;;;;;4.03;1.90;;;20.50;67.20;;;;;;4936239;29;20083;-78
2022/05/10 20:53:40;;;;;;;3.67;2.25;;;20.50;67.60;;;;;;4936312;29;20099;-78
2022/05/10 20:56:06;;;;;;;6.22;1.90;;;20.50;67.80;;;;;;4934438;29;20472;-78
2022/05/10 20:58:33;;;;;;;3.72;2.33;;;20.50;67.80;;;;;;4935731;29;20381;-78
2022/05/10 21:01:00;;;;;;;3.38;2.30;;;20.30;68.30;;;;;;4935973;29;20071;-78
2022/05/10 21:03:26;;;;;;;3.47;2.20;;;20.40;68.00;;;;;;4935796;29;20035;-78
2022/05/10 21:05:51;;;;;;;3.08;1.98;;;20.30;68.30;;;;;;4935989;29;20031;-78
2022/05/10 21:08:32;;;;;;;7.20;1.98;;;20.20;68.50;;;;;;4937529;29;20028;-78
2022/05/10 21:11:02;;;;;;;6.03;1.88;;;20.20;68.70;;;;;;4953704;29;20055;-78
2022/05/10 21:13:28;;;;;;;5.63;1.98;;;20.10;69.00;;;;;;4944561;28;20023;-78
2022/05/10 21:15:55;;;;;;;3.45;2.00;;;20.10;69.50;;;;;;4937161;29;20043;-78
2022/05/10 21:18:22;;;;;;;2.80;2.00;;;20.00;69.50;;;;;;4935809;29;20070;-78
2022/05/10 21:20:48;;;;;;;6.82;2.38;;;20.00;69.30;;;;;;4934481;29;20098;-78
2022/05/10 21:23:13;;;;;;;8.63;2.17;;;20.00;68.90;;;;;;4932818;29;20488;-78
2022/05/10 21:25:39;;;;;;;3.47;2.00;;;20.00;69.40;;;;;;4934226;29;20035;-78
2022/05/10 21:28:05;;;;;;;2.55;1.95;;;20.00;69.10;;;;;;4934888;29;20023;-78
2022/05/10 21:33:15;;;;;;;6.35;2.22;;;19.90;69.30;;;;;;4934352;29;20055;-78
2022/05/10 21:35:45;;;;;;;4.72;2.05;;;19.80;69.80;;;;;;4933983;29;20036;-78
2022/05/10 21:38:13;;;;;;;3.70;1.75;;;19.70;69.70;;;;;;4933894;29;20066;-78
2022/05/10 21:40:40;;;;;;;3.45;1.90;;;19.70;69.70;;;;;;4932595;29;20094;-78
2022/05/10 21:43:11;;;;;;;2.78;1.75;;;19.70;69.70;;;;;;4934633;29;20032;-78